Circle R (354) Station Data

Red Flag Warning: No
Fire Weather Zone: 250
SDGE Region: North East
Lat/Lon: 33.286/-117.146

Observations

Time Wind Speed/Gust Temp(F) RH Fuel Moist Fuel Temp(F) Dewpt(F) Tmax(F) Tmin(F) Accum Precip 10-min Precip SL Press(mb)
3/29 8:00am 114 1 G 3 57° 49% - - 38° 57.3° 50° - - -
3/29 7:50am 250 1 G 3 56° 46% - - 36° 57.2° 50° - - -
3/29 7:40am 52 3 G 7 56° 44% - - 34° 56.5° 50° - - -
3/29 7:30am 27 6 G 7 54° 46% - - 34° 56° 50° - - -
3/29 7:20am 3 1 G 5 51° 57% - - 37° 56° 50° - - -
3/29 7:10am 314 1 G 4 52° 55% - - 36° 56° 50° - - -
3/29 7:00am 23 4 G 6 52° 52% - - 35° 56° 50° - - -
3/29 6:50am 67 2 G 6 53° 49% - - 35° 56° 50° - - -
3/29 6:40am 24 5 G 9 53° 51% - - 35° 56° 50° - - -
3/29 6:30am 39 3 G 6 52° 54% - - 36° 56° 50° - - -
3/29 6:20am 54 1 G 2 51° 57% - - 37° 56° 50° - - -
3/29 6:10am 229 0 G 2 52° 55% - - 36° 56° 50° - - -
3/29 6:00am 344 2 G 4 55° 47% - - 35° 56° 50° - - -
3/29 5:50am 49 2 G 5 55° 48% - - 35° 55.4° 50° - - -
3/29 5:40am 33 2 G 6 54° 50% - - 36° 55.1° 50° - - -
3/29 5:30am 16 2 G 5 55° 50% - - 36° 55.1° 50° - - -
3/29 5:20am 19 6 G 10 54° 51% - - 37° 55.1° 50° - - -
3/29 5:10am 33 8 G 10 54° 52% - - 37° 55° 50° - - -
3/29 5:00am 33 8 G 11 53° 55% - - 38° 55° 50° - - -
3/29 4:50am 36 8 G 11 52° 58% - - 38° 55° 50° - - -
3/29 4:40am 44 9 G 12 52° 59% - - 38° 55° 50° - - -
3/29 4:30am 48 8 G 12 51° 61% - - 38° 55° 50° - - -
3/29 4:20am 42 5 G 6 52° 58% - - 38° 55° 50° - - -
3/29 4:10am 40 5 G 8 52° 58% - - 38° 55° 50° - - -
3/29 4:00am 8 2 G 5 52° 58% - - 38° 55° 50° - - -
3/29 3:50am 34 2 G 5 52° 60% - - 38° 55° 50° - - -
3/29 3:40am 18 2 G 5 51° 63% - - 39° 55° 50° - - -
3/29 3:30am 240 1 G 2 52° 61% - - 39° 55° 51° - - -
3/29 3:20am 264 2 G 4 52° 61% - - 39° 55° 51.6° - - -
3/29 3:10am 255 1 G 2 53° 59% - - 39° 55° 51.7° - - -
3/29 3:00am 133 1 G 3 53° 58% - - 39° 55° 51.7° - - -
3/29 2:50am 18 6 G 9 54° 57% - - 39° 55° 51.7° - - -
3/29 2:40am 45 3 G 7 53° 59% - - 39° 55° 51.7° - - -
3/29 2:30am 34 7 G 10 53° 61% - - 40° 55° 51.7° - - -
3/29 2:20am 25 7 G 10 53° 61% - - 40° 55° 51.7° - - -
3/29 2:10am 45 2 G 6 52° 61% - - 39° 55° 51.7° - - -
3/29 2:00am 36 2 G 4 53° 60% - - 40° 55° 51.7° - - -
3/29 1:50am 45 2 G 3 52° 61% - - 39° 55° 51.7° - - -
3/29 1:40am 35 2 G 4 53° 57% - - 39° 55° 51.7° - - -
3/29 1:30am 30 5 G 7 54° 56% - - 39° 55° 51.8° - - -
3/29 1:20am 25 5 G 7 54° 57% - - 40° 55° 51.8° - - -
3/29 1:10am 15 6 G 8 54° 57% - - 39° 54.8° 51.8° - - -
3/29 1:00am 29 4 G 5 54° 57% - - 39° 54.4° 51.8° - - -
3/29 12:50am 25 4 G 5 53° 59% - - 39° 54.1° 51.8° - - -
3/29 12:40am 141 0 G 1 52° 59% - - 38° 54.1° 51.8° - - -
3/29 12:30am 55 1 G 2 53° 57% - - 39° 54.1° 52.5° - - -
3/29 12:20am 239 0 G 2 53° 59% - - 39° 53.3° 52.5° - - -
3/29 12:10am 296 0 G 2 53° 60% - - 39° 53.3° 52.5° - - -
3/29 12:00am 229 1 G 2 53° 59% - - 39° 73.3° 45.6° - - -
3/28 11:50pm 59 1 G 3 54° 57% - - 39° 73.3° 45.6° - - -
3/28 11:40pm 22 3 G 4 54° 57% - - 39° 73.3° 45.6° - - -
3/28 11:30pm 6 1 G 3 54° 55% - - 39° 73.3° 45.6° - - -
3/28 11:20pm 277 1 G 2 54° 55% - - 38° 73.3° 45.6° - - -
3/28 11:10pm 212 1 G 2 55° 53% - - 38° 73.3° 45.6° - - -
3/28 11:00pm 22 3 G 4 56° 52% - - 38° 73.3° 45.6° - - -
3/28 10:50pm 22 3 G 4 55° 54% - - 39° 73.3° 45.6° - - -
3/28 10:40pm 17 0 G 1 54° 55% - - 38° 73.3° 45.6° - - -
3/28 10:30pm 13 0 G 1 54° 55% - - 38° 73.3° 45.6° - - -
3/28 10:20pm 204 1 G 2 55° 52% - - 38° 73.3° 45.6° - - -
3/28 10:10pm 346 1 G 3 56° 49% - - 37° 73.3° 45.6° - - -
3/28 10:00pm 20 2 G 3 57° 49% - - 38° 73.3° 45.6° - - -
3/28 9:50pm 180 1 G 3 57° 49% - - 37° 73.3° 45.6° - - -
3/28 9:40pm 25 3 G 6 58° 46% - - 37° 73.3° 45.6° - - -
3/28 9:30pm 203 1 G 2 57° 47% - - 37° 73.3° 45.6° - - -
3/28 9:20pm 357 2 G 4 59° 43% - - 37° 73.3° 45.6° - - -
3/28 9:10pm 357 3 G 5 59° 43% - - 37° 73.3° 45.6° - - -
3/28 9:00pm 24 3 G 4 59° 44% - - 37° 73.3° 45.6° - - -
3/28 8:50pm 26 4 G 5 59° 43% - - 37° 73.3° 45.6° - - -
3/28 8:40pm 20 4 G 5 59° 43% - - 37° 73.3° 45.6° - - -
3/28 8:30pm 45 3 G 5 61° 40% - - 36° 73.3° 45.6° - - -
3/28 8:20pm 329 1 G 2 61° 40% - - 36° 73.3° 45.6° - - -
3/28 8:10pm 260 1 G 3 61° 39% - - 36° 73.3° 45.6° - - -
3/28 8:00pm 50 0 G 1 61° 38% - - 36° 73.3° 45.6° - - -
3/28 7:50pm 220 1 G 3 62° 37% - - 35° 73.3° 45.6° - - -
3/28 7:40pm 186 1 G 2 62° 36% - - 35° 73.3° 45.6° - - -
3/28 7:30pm 184 1 G 3 63° 35% - - 35° 73.3° 45.6° - - -
3/28 7:20pm 184 1 G 3 63° 34% - - 35° 73.3° 45.6° - - -
3/28 7:10pm 190 2 G 3 64° 32% - - 34° 73.3° 45.6° - - -
3/28 7:00pm 187 1 G 3 65° 30% - - 33° 73.3° 45.6° - - -
3/28 6:50pm 238 2 G 3 65° 30% - - 33° 73.3° 45.6° - - -
3/28 6:40pm 243 3 G 6 66° 30% - - 34° 73.3° 45.6° - - -
3/28 6:30pm 220 4 G 7 66° 30% - - 34° 73.3° 45.6° - - -
3/28 6:20pm 214 4 G 7 66° 30% - - 34° 73.3° 45.6° - - -
3/28 6:10pm 231 5 G 7 67° 31% - - 35° 73.3° 45.6° - - -
3/28 6:00pm 242 4 G 7 67° 31% - - 35° 73.3° 45.6° - - -
3/28 5:50pm 230 5 G 9 66° 33% - - 36° 73.3° 45.6° - - -
3/28 5:40pm 225 5 G 8 67° 34% - - 37° 73.3° 45.6° - - -
3/28 5:30pm 239 6 G 12 67° 33% - - 37° 73.3° 45.6° - - -
3/28 5:20pm 239 7 G 12 67° 32% - - 36° 73.3° 45.6° - - -
3/28 5:10pm 237 7 G 11 67° 33% - - 37° 73.3° 45.6° - - -
3/28 5:00pm 238 8 G 13 67° 34% - - 38° 73.3° 45.6° - - -
3/28 4:50pm 234 7 G 13 68° 36% - - 40° 73.3° 45.6° - - -
3/28 4:40pm 235 8 G 13 68° 38% - - 42° 73.3° 45.6° - - -
3/28 4:30pm 230 8 G 12 68° 36% - - 40° 73.3° 45.6° - - -
3/28 4:20pm 256 9 G 13 69° 33% - - 38° 73.3° 45.6° - - -
3/28 4:10pm 241 8 G 15 69° 32% - - 38° 73.3° 45.6° - - -
3/28 4:00pm 253 9 G 13 69° 30% - - 37° 73.3° 45.6° - - -
3/28 3:50pm 239 9 G 15 70° 31% - - 38° 73.3° 45.6° - - -
3/28 3:40pm 225 9 G 14 70° 33% - - 40° 73.3° 45.6° - - -
3/28 3:30pm 243 8 G 13 71° 33% - - 40° 73.3° 45.6° - - -
3/28 3:20pm 238 9 G 15 71° 34% - - 42° 73.3° 45.6° - - -
3/28 3:10pm 222 8 G 14 72° 32% - - 41° 73.3° 45.6° - - -
3/28 3:00pm 237 8 G 12 72° 33% - - 41° 73.3° 45.6° - - -
3/28 2:50pm 237 7 G 13 72° 32% - - 41° 73.3° 45.6° - - -
3/28 2:40pm 235 8 G 12 72° 32% - - 41° 73.3° 45.6° - - -
3/28 2:30pm 232 7 G 12 72° 33% - - 41° 73.3° 45.6° - - -
3/28 2:20pm 234 7 G 12 72° 32% - - 41° 73.3° 45.6° - - -
3/28 2:10pm 239 7 G 15 73° 31% - - 41° 73.3° 45.6° - - -
3/28 2:00pm 248 7 G 12 72° 32% - - 41° 73.1° 45.6° - - -
3/28 1:50pm 239 6 G 14 72° 33% - - 41° 73.1° 45.6° - - -
3/28 1:40pm 242 7 G 13 71° 34% - - 41° 73.1° 45.6° - - -
3/28 1:30pm 240 6 G 14 71° 34% - - 42° 73.1° 45.6° - - -
3/28 1:20pm 227 7 G 12 71° 33% - - 41° 73.1° 45.6° - - -
3/28 1:10pm 240 6 G 14 71° 33% - - 40° 73.1° 45.6° - - -
3/28 1:00pm 247 6 G 13 71° 32% - - 40° 73.1° 45.6° - - -
3/28 12:50pm 237 7 G 12 71° 33% - - 40° 73.1° 45.6° - - -
3/28 12:40pm 242 7 G 11 70° 32% - - 39° 73.1° 45.6° - - -
3/28 12:30pm 236 8 G 14 71° 29% - - 37° 73.1° 45.6° - - -
3/28 12:20pm 230 6 G 14 71° 26% - - 34° 73.1° 45.6° - - -
3/28 12:10pm 318 3 G 7 73° 15% - - 22° 73.1° 45.6° - - -
3/28 12:00pm 217 3 G 7 72° 15% - - 22° 72.9° 45.6° - - -
3/28 11:50am 251 3 G 7 72° 17% - - 24° 71.9° 45.6° - - -
3/28 11:40am 310 3 G 9 71° 19% - - 27° 71.8° 45.6° - - -
3/28 11:30am 6 5 G 10 70° 21% - - 28° 71.6° 45.6° - - -
3/28 11:20am 15 4 G 10 71° 21% - - 29° 71.6° 45.6° - - -
3/28 11:10am 8 4 G 10 69° 22% - - 28° 70.9° 45.6° - - -
3/28 11:00am 351 5 G 11 68° 23% - - 29° 68.8° 45.6° - - -
3/28 10:50am 6 6 G 12 68° 24% - - 30° 68.4° 45.6° - - -
3/28 10:40am 4 5 G 12 67° 26% - - 31° 67.7° 45.6° - - -
3/28 10:30am 6 7 G 11 66° 28% - - 32° 66.6° 45.6° - - -
3/28 10:20am 4 6 G 12 65° 29% - - 32° 65.7° 45.6° - - -
3/28 10:10am 343 5 G 10 64° 33% - - 34° 65.1° 45.6° - - -
3/28 10:00am 195 6 G 10 63° 42% - - 39° 64.6° 45.6° - - -
3/28 9:50am 174 4 G 7 62° 45% - - 41° 62.7° 45.6° - - -
3/28 9:40am 176 3 G 6 61° 50% - - 42° 62° 45.6° - - -
3/28 9:30am 190 2 G 5 61° 51% - - 43° 61.2° 45.6° - - -
3/28 9:20am 176 2 G 4 60° 53% - - 43° 60.4° 45.6° - - -
3/28 9:10am 135 2 G 4 60° 53% - - 42° 60.1° 45.6° - - -
3/28 9:00am 158 2 G 4 58° 59% - - 44° 59.1° 45.6° - - -
3/28 8:50am 195 4 G 7 56° 64% - - 44° 56.5° 45.6° - - -
3/28 8:40am 163 2 G 4 56° 68% - - 45° 56.4° 45.6° - - -
3/28 8:30am 133 2 G 3 54° 72% - - 45° 54.8° 45.6° - - -
3/28 8:20am 103 1 G 3 52° 76% - - 45° 53.4° 45.6° - - -
3/28 8:10am 83 3 G 5 51° 79% - - 45° 52.1° 45.6° - - -
3/28 8:00am 89 2 G 4 51° 78% - - 44° 52.1° 45.6° - - -
3/28 7:50am 114 2 G 3 51° 80% - - 45° 52.1° 45.6° - - -
3/28 7:40am 47 3 G 6 49° 82% - - 44° 52.1° 45.6° - - -
3/28 7:30am 26 4 G 6 49° 85% - - 45° 52.1° 45.6° - - -
3/28 7:20am 20 7 G 9 48° 99% - - 48° 52.1° 45.6° - - -
3/28 7:10am 52 5 G 8 47° 100% - - 47° 52.1° 45.6° - - -
3/28 7:00am 149 2 G 3 47° 100% - - 47° 52.1° 45.6° - - -
3/28 6:50am 5 5 G 7 47° 100% - - 47° 52.1° 45.6° - - -
3/28 6:40am 60 3 G 7 46° 100% - - 46° 52.1° 45.6° - - -
3/28 6:30am 321 4 G 8 48° 100% - - 48° 52.1° 45.6° - - -
3/28 6:20am 24 5 G 8 48° 100% - - 48° 52.1° 45.6° - - -
3/28 6:10am 269 3 G 6 47° 100% - - 47° 52.1° 45.6° - - -
3/28 6:00am 24 8 G 11 47° 100% - - 47° 52.1° 45.6° - - -